Time;durP1;ratioP1;P1;durP2;ratioP2;P2;SDS_P1;SDS_P2;PMS_P1;PMS_P2;Temp;Humidity;BMP_temperature;BMP_pressure;BME280_temperature;BME280_humidity;BME280_pressure;Samples;Min_cycle;Max_cycle;Signal;HPM_P1;HPM_P2
2020/12/19 00:00:36;;;;;;;10.32;5.57;;;;;;;;;;4954432;29;20082;-79
2020/12/19 00:03:01;;;;;;;9.77;6.10;;;;;;;;;;4954936;29;20019;-79
2020/12/19 00:05:26;;;;;;;10.88;5.78;;;;;;;;;;4955625;28;20137;-79
2020/12/19 00:07:51;;;;;;;10.02;5.90;;;;;;;;;;4954381;29;20356;-79
2020/12/19 00:10:16;;;;;;;9.75;5.43;;;;;;;;;;4955737;29;20082;-79
2020/12/19 00:12:45;;;;;;;10.10;5.60;;;;;;;;;;4954344;29;20078;-79
2020/12/19 00:15:11;;;;;;;10.27;5.63;;;;;;;;;;4954224;29;20047;-79
2020/12/19 00:17:36;;;;;;;10.82;6.50;;;;;;;;;;4954485;29;20031;-79
2020/12/19 00:20:01;;;;;;;10.93;6.40;;;;;;;;;;4954248;29;20012;-79
2020/12/19 00:22:27;;;;;;;9.65;5.63;;;;;;;;;;4955693;28;20410;-79
2020/12/19 00:24:52;;;;;;;9.63;5.53;;;;;;;;;;4954061;29;20015;-79
2020/12/19 00:27:17;;;;;;;10.70;6.38;;;;;;;;;;4948089;28;20031;-79
2020/12/19 00:29:42;;;;;;;10.05;5.88;;;;;;;;;;4953662;29;20031;-80
2020/12/19 00:32:08;;;;;;;8.80;5.60;;;;;;;;;;4954270;29;20386;-79
2020/12/19 00:34:33;;;;;;;11.35;6.50;;;;;;;;;;4954100;29;20050;-79
2020/12/19 00:36:59;;;;;;;10.50;5.97;;;;;;;;;;4954711;28;20485;-79
2020/12/19 00:39:24;;;;;;;10.57;5.97;;;;;;;;;;4955163;28;20019;-79
2020/12/19 00:41:50;;;;;;;9.88;5.55;;;;;;;;;;4953832;29;20015;-79
2020/12/19 00:44:15;;;;;;;8.70;4.32;;;;;;;;;;4954828;28;20027;-79
2020/12/19 00:46:40;;;;;;;11.02;6.18;;;;;;;;;;4953681;29;20451;-79
2020/12/19 00:49:05;;;;;;;12.38;6.45;;;;;;;;;;4953314;28;20078;-79
2020/12/19 00:51:30;;;;;;;9.13;5.30;;;;;;;;;;4953977;29;20114;-79
2020/12/19 00:53:55;;;;;;;10.07;6.18;;;;;;;;;;4953607;29;20046;-80
2020/12/19 00:56:22;;;;;;;9.75;5.25;;;;;;;;;;4953269;29;20529;-79
2020/12/19 00:58:47;;;;;;;10.90;6.05;;;;;;;;;;4953382;29;20548;-79
2020/12/19 01:01:13;;;;;;;11.45;6.55;;;;;;;;;;4953567;29;20031;-79
2020/12/19 01:03:39;;;;;;;11.40;5.68;;;;;;;;;;4954608;28;20047;-79
2020/12/19 01:06:04;;;;;;;11.80;5.68;;;;;;;;;;4954718;28;20022;-79
2020/12/19 01:08:29;;;;;;;11.10;6.57;;;;;;;;;;4954763;28;20019;-80
2020/12/19 01:10:54;;;;;;;12.45;7.15;;;;;;;;;;4954547;28;20050;-80
2020/12/19 01:13:20;;;;;;;10.30;5.90;;;;;;;;;;4953237;29;20655;-80
2020/12/19 01:15:45;;;;;;;9.73;5.53;;;;;;;;;;4952907;29;20034;-80
2020/12/19 01:18:10;;;;;;;8.77;5.28;;;;;;;;;;4953105;29;20011;-79
2020/12/19 01:20:35;;;;;;;9.65;6.22;;;;;;;;;;4953302;29;20106;-79
2020/12/19 01:23:00;;;;;;;10.63;6.60;;;;;;;;;;4953211;29;20020;-79
2020/12/19 01:25:25;;;;;;;8.02;4.93;;;;;;;;;;4954419;29;20404;-80
2020/12/19 01:27:51;;;;;;;10.10;5.60;;;;;;;;;;4953997;28;20027;-80
2020/12/19 01:30:16;;;;;;;7.88;4.50;;;;;;;;;;4953164;29;20530;-79
2020/12/19 01:32:41;;;;;;;9.57;5.00;;;;;;;;;;4953159;28;20077;-79
2020/12/19 01:35:06;;;;;;;10.50;5.05;;;;;;;;;;4952874;29;20107;-79
2020/12/19 01:37:31;;;;;;;9.57;5.05;;;;;;;;;;4954450;28;20038;-79
2020/12/19 01:39:57;;;;;;;11.35;6.28;;;;;;;;;;4952228;29;20034;-79
2020/12/19 01:42:22;;;;;;;9.95;5.35;;;;;;;;;;4952601;29;20007;-79
2020/12/19 01:44:47;;;;;;;8.07;4.82;;;;;;;;;;4950871;29;20387;-79
2020/12/19 01:47:14;;;;;;;10.80;4.68;;;;;;;;;;4952669;29;20577;-79
2020/12/19 01:49:39;;;;;;;9.48;5.80;;;;;;;;;;4953634;28;20046;-79
2020/12/19 01:52:05;;;;;;;6.95;4.38;;;;;;;;;;4951966;29;20394;-79
2020/12/19 01:54:30;;;;;;;9.80;5.68;;;;;;;;;;4952418;29;20511;-79
2020/12/19 01:56:56;;;;;;;8.95;5.10;;;;;;;;;;4953550;29;20451;-79
2020/12/19 01:59:22;;;;;;;8.73;5.10;;;;;;;;;;4952831;29;20023;-79
2020/12/19 02:01:55;;;;;;;11.55;5.03;;;;;;;;;;4953250;28;20027;-79
2020/12/19 02:04:21;;;;;;;5.82;3.92;;;;;;;;;;4953887;28;20024;-79
2020/12/19 02:06:47;;;;;;;6.72;4.40;;;;;;;;;;4953418;28;20038;-80
2020/12/19 02:09:14;;;;;;;9.55;5.20;;;;;;;;;;4952688;29;20394;-79
2020/12/19 02:11:39;;;;;;;10.18;5.10;;;;;;;;;;4952864;29;20047;-79
2020/12/19 02:14:08;;;;;;;7.53;4.05;;;;;;;;;;4951987;29;20425;-79
2020/12/19 02:16:34;;;;;;;10.50;5.45;;;;;;;;;;4953708;28;20038;-79
2020/12/19 02:18:59;;;;;;;10.85;5.18;;;;;;;;;;4952057;29;20024;-79
2020/12/19 02:21:24;;;;;;;7.95;4.55;;;;;;;;;;4952148;29;20467;-80
2020/12/19 02:23:49;;;;;;;10.05;5.35;;;;;;;;;;4951970;29;20034;-79
2020/12/19 02:26:14;;;;;;;11.18;4.78;;;;;;;;;;4952461;29;20059;-79
2020/12/19 02:28:40;;;;;;;9.90;4.57;;;;;;;;;;4953714;29;20433;-79
2020/12/19 02:31:05;;;;;;;9.25;4.68;;;;;;;;;;4952301;29;20026;-79
2020/12/19 02:33:30;;;;;;;8.65;4.55;;;;;;;;;;4951916;29;20027;-79
2020/12/19 02:35:56;;;;;;;8.88;4.95;;;;;;;;;;4951459;29;20062;-79
2020/12/19 02:38:21;;;;;;;10.43;5.05;;;;;;;;;;4952254;29;20363;-79
2020/12/19 02:40:46;;;;;;;8.20;4.20;;;;;;;;;;4951491;29;20047;-79
2020/12/19 02:43:11;;;;;;;11.50;4.65;;;;;;;;;;4953215;29;20011;-79
2020/12/19 02:45:36;;;;;;;6.60;4.15;;;;;;;;;;4953307;29;20428;-79
2020/12/19 02:48:02;;;;;;;8.15;4.63;;;;;;;;;;4952278;29;20027;-79
2020/12/19 02:50:27;;;;;;;9.35;5.20;;;;;;;;;;4951940;29;20355;-79
2020/12/19 02:52:52;;;;;;;7.30;4.47;;;;;;;;;;4951658;29;20051;-80
2020/12/19 02:55:17;;;;;;;10.30;4.55;;;;;;;;;;4953206;29;20011;-79
2020/12/19 02:57:43;;;;;;;11.45;5.03;;;;;;;;;;4953317;29;20024;-80
2020/12/19 03:00:08;;;;;;;10.55;4.13;;;;;;;;;;4952090;29;20370;-79
2020/12/19 03:02:33;;;;;;;10.38;5.28;;;;;;;;;;4952281;29;20054;-79
2020/12/19 03:04:58;;;;;;;11.15;4.55;;;;;;;;;;4953087;29;20020;-80
2020/12/19 03:07:23;;;;;;;12.25;4.57;;;;;;;;;;4953092;29;20011;-80
2020/12/19 03:09:48;;;;;;;8.63;4.57;;;;;;;;;;4952887;29;20027;-79
2020/12/19 03:12:14;;;;;;;7.25;4.05;;;;;;;;;;4953284;28;20470;-79
2020/12/19 03:14:39;;;;;;;4.07;2.42;;;;;;;;;;4955463;29;20023;-80
2020/12/19 03:17:04;;;;;;;8.77;3.90;;;;;;;;;;4954991;29;20019;-80
2020/12/19 03:19:29;;;;;;;9.20;4.22;;;;;;;;;;4956498;29;20118;-79
2020/12/19 03:21:54;;;;;;;7.72;3.13;;;;;;;;;;4954828;29;20434;-79
2020/12/19 03:24:20;;;;;;;6.97;4.40;;;;;;;;;;4954979;29;20031;-80
2020/12/19 03:26:45;;;;;;;7.30;3.53;;;;;;;;;;4954351;29;20031;-79
2020/12/19 03:29:10;;;;;;;7.75;4.25;;;;;;;;;;4955781;29;20109;-79
2020/12/19 03:31:35;;;;;;;11.32;4.47;;;;;;;;;;4955180;29;20042;-80
2020/12/19 03:34:00;;;;;;;7.93;4.63;;;;;;;;;;4956193;29;20028;-79
2020/12/19 03:36:27;;;;;;;12.10;4.50;;;;;;;;;;4956446;29;20020;-79
2020/12/19 03:38:52;;;;;;;9.50;4.35;;;;;;;;;;4954947;29;20599;-79
2020/12/19 03:41:17;;;;;;;6.93;3.55;;;;;;;;;;4954786;29;20023;-79
2020/12/19 03:43:42;;;;;;;7.47;4.47;;;;;;;;;;4954573;29;20121;-79
2020/12/19 03:46:08;;;;;;;3.80;1.77;;;;;;;;;;4954471;29;20477;-79
2020/12/19 03:48:33;;;;;;;10.45;4.32;;;;;;;;;;4955135;29;20023;-80
2020/12/19 03:50:58;;;;;;;11.55;5.07;;;;;;;;;;4955720;29;20039;-79
2020/12/19 03:53:23;;;;;;;7.55;4.22;;;;;;;;;;4954361;29;20019;-79
2020/12/19 03:55:49;;;;;;;10.13;5.05;;;;;;;;;;4954659;29;20055;-80
2020/12/19 03:58:14;;;;;;;8.63;4.93;;;;;;;;;;4956030;29;20067;-79
2020/12/19 04:00:39;;;;;;;12.73;5.57;;;;;;;;;;4954437;29;20107;-79
2020/12/19 04:03:04;;;;;;;9.57;5.30;;;;;;;;;;4954322;29;20023;-79
2020/12/19 04:05:29;;;;;;;10.70;5.90;;;;;;;;;;4954427;29;20019;-79
2020/12/19 04:07:55;;;;;;;11.77;4.28;;;;;;;;;;4955461;29;20018;-80
2020/12/19 04:10:20;;;;;;;10.82;5.40;;;;;;;;;;4955469;29;20459;-79
2020/12/19 04:12:45;;;;;;;9.32;5.07;;;;;;;;;;4954430;29;20015;-80
2020/12/19 04:15:11;;;;;;;8.57;5.00;;;;;;;;;;4955301;29;20007;-79
2020/12/19 04:17:37;;;;;;;8.35;4.22;;;;;;;;;;4954489;29;20055;-79
2020/12/19 04:20:03;;;;;;;8.65;5.07;;;;;;;;;;4954203;29;20015;-79
2020/12/19 04:22:28;;;;;;;10.18;5.63;;;;;;;;;;4955527;28;20069;-79
2020/12/19 04:24:53;;;;;;;12.07;6.07;;;;;;;;;;4954663;28;20458;-79
2020/12/19 04:27:18;;;;;;;10.32;5.28;;;;;;;;;;4953772;29;20081;-79
2020/12/19 04:29:44;;;;;;;11.57;5.35;;;;;;;;;;4953812;29;20034;-79
2020/12/19 04:32:09;;;;;;;10.90;4.97;;;;;;;;;;4954079;29;20378;-79
2020/12/19 04:34:34;;;;;;;10.57;4.82;;;;;;;;;;4954469;29;20466;-79
2020/12/19 04:36:59;;;;;;;10.02;5.90;;;;;;;;;;4954627;29;20023;-79
2020/12/19 04:39:24;;;;;;;11.02;6.00;;;;;;;;;;4953605;29;20022;-79
2020/12/19 04:41:50;;;;;;;8.82;4.57;;;;;;;;;;4955056;29;20019;-79
2020/12/19 04:44:16;;;;;;;10.73;4.97;;;;;;;;;;4954690;29;20394;-79
2020/12/19 04:46:42;;;;;;;9.15;4.72;;;;;;;;;;4953962;29;20367;-80
2020/12/19 04:49:07;;;;;;;10.30;5.10;;;;;;;;;;4953143;29;20034;-80
2020/12/19 04:51:34;;;;;;;11.27;6.30;;;;;;;;;;4955048;29;20031;-79
2020/12/19 04:53:59;;;;;;;10.90;5.95;;;;;;;;;;4953336;29;20031;-79
2020/12/19 04:56:24;;;;;;;11.55;5.20;;;;;;;;;;4953378;29;20074;-79
2020/12/19 04:58:53;;;;;;;15.38;7.53;;;;;;;;;;4954729;29;20015;-79
2020/12/19 05:01:19;;;;;;;11.75;6.97;;;;;;;;;;4953622;29;20053;-79
2020/12/19 05:03:48;;;;;;;13.32;6.10;;;;;;;;;;4953335;29;20439;-79
2020/12/19 05:06:15;;;;;;;10.23;5.47;;;;;;;;;;4952827;29;20512;-79
2020/12/19 05:08:40;;;;;;;11.52;5.60;;;;;;;;;;4953091;29;20030;-80
2020/12/19 05:11:06;;;;;;;10.30;5.80;;;;;;;;;;4951568;29;20094;-79
2020/12/19 05:13:31;;;;;;;12.48;6.35;;;;;;;;;;4950319;29;20031;-79
2020/12/19 05:15:56;;;;;;;11.27;6.70;;;;;;;;;;4950171;29;20090;-79
2020/12/19 05:18:22;;;;;;;14.43;6.47;;;;;;;;;;4952238;28;20383;-79
2020/12/19 05:20:47;;;;;;;13.35;6.63;;;;;;;;;;4951102;29;20031;-80
2020/12/19 05:23:13;;;;;;;13.02;6.78;;;;;;;;;;4951929;28;20019;-79
2020/12/19 05:25:38;;;;;;;12.93;7.55;;;;;;;;;;4949666;29;20027;-79
2020/12/19 05:28:04;;;;;;;11.25;6.25;;;;;;;;;;4951697;28;20437;-80
2020/12/19 05:30:29;;;;;;;11.10;5.47;;;;;;;;;;4951149;28;20356;-79
2020/12/19 05:32:54;;;;;;;11.40;6.47;;;;;;;;;;4950755;29;20022;-80
2020/12/19 05:35:21;;;;;;;12.88;6.25;;;;;;;;;;4949632;28;20067;-79
2020/12/19 05:37:57;;;;;;;15.30;6.75;;;;;;;;;;4949775;29;20434;-79
2020/12/19 05:40:23;;;;;;;13.45;7.00;;;;;;;;;;4947679;29;20019;-79
2020/12/19 05:42:48;;;;;;;14.43;7.55;;;;;;;;;;4952632;29;20051;-79
2020/12/19 05:45:18;;;;;;;11.48;6.03;;;;;;;;;;4952803;29;20467;-79
2020/12/19 05:47:43;;;;;;;10.30;6.28;;;;;;;;;;4952295;29;20030;-80
2020/12/19 05:50:09;;;;;;;10.75;5.93;;;;;;;;;;4952371;29;20567;-80
2020/12/19 05:52:35;;;;;;;10.18;5.90;;;;;;;;;;4953739;29;20027;-80
2020/12/19 05:55:02;;;;;;;14.18;6.70;;;;;;;;;;4952373;29;20593;-79
2020/12/19 05:57:28;;;;;;;11.38;6.13;;;;;;;;;;4951569;29;20051;-79
2020/12/19 05:59:53;;;;;;;12.80;6.07;;;;;;;;;;4952161;29;20074;-79
2020/12/19 06:02:19;;;;;;;12.02;6.75;;;;;;;;;;4953862;29;20483;-79
2020/12/19 06:04:46;;;;;;;9.35;5.50;;;;;;;;;;4953670;28;20467;-79
2020/12/19 06:07:12;;;;;;;12.18;5.53;;;;;;;;;;4952119;29;20026;-80
2020/12/19 06:09:39;;;;;;;12.75;6.75;;;;;;;;;;4954103;28;20019;-79
2020/12/19 06:12:08;;;;;;;11.95;5.28;;;;;;;;;;4952528;29;20125;-79
2020/12/19 06:14:39;;;;;;;11.85;6.28;;;;;;;;;;4953924;28;20086;-79
2020/12/19 06:17:10;;;;;;;15.05;7.05;;;;;;;;;;4952297;29;20031;-80
2020/12/19 06:19:40;;;;;;;13.35;7.03;;;;;;;;;;4951817;29;20039;-79
2020/12/19 06:22:05;;;;;;;15.50;6.13;;;;;;;;;;4953494;28;20022;-80
2020/12/19 06:24:51;;;;;;;13.73;6.20;;;;;;;;;;4953574;29;20015;-79
2020/12/19 06:27:18;;;;;;;13.15;6.70;;;;;;;;;;4952866;28;20062;-79
2020/12/19 06:29:44;;;;;;;15.25;7.43;;;;;;;;;;4951752;29;20078;-79
2020/12/19 06:32:17;;;;;;;12.85;6.03;;;;;;;;;;4952427;29;20019;-79
2020/12/19 06:34:43;;;;;;;13.68;7.43;;;;;;;;;;4952427;29;20105;-79
2020/12/19 06:37:08;;;;;;;14.95;6.50;;;;;;;;;;4951585;29;20035;-79
2020/12/19 06:39:33;;;;;;;11.30;6.18;;;;;;;;;;4952255;29;20799;-79
2020/12/19 06:41:58;;;;;;;13.70;6.70;;;;;;;;;;4951870;29;20359;-80
2020/12/19 06:44:26;;;;;;;11.13;6.43;;;;;;;;;;4958830;28;20025;-79
2020/12/19 06:46:51;;;;;;;13.68;7.00;;;;;;;;;;4951696;28;20031;-79
2020/12/19 06:49:27;;;;;;;14.55;7.50;;;;;;;;;;4954824;29;20383;-79
2020/12/19 06:51:59;;;;;;;17.02;7.43;;;;;;;;;;4957109;28;20100;-80
2020/12/19 06:54:29;;;;;;;12.32;6.55;;;;;;;;;;4955318;29;20055;-79
2020/12/19 06:56:54;;;;;;;12.43;6.25;;;;;;;;;;4955028;29;20034;-79
2020/12/19 06:59:25;;;;;;;13.65;6.40;;;;;;;;;;4956633;29;20015;-79
2020/12/19 07:01:51;;;;;;;12.10;6.88;;;;;;;;;;4955734;29;20030;-79
2020/12/19 07:04:32;;;;;;;19.17;8.30;;;;;;;;;;4956433;28;20467;-79
2020/12/19 07:07:01;;;;;;;14.10;6.55;;;;;;;;;;4955190;29;20015;-80
2020/12/19 07:09:27;;;;;;;13.70;6.47;;;;;;;;;;4955403;29;20660;-79
2020/12/19 07:11:53;;;;;;;13.63;7.28;;;;;;;;;;4955067;29;20027;-79
2020/12/19 07:14:18;;;;;;;14.23;6.88;;;;;;;;;;4954828;29;20030;-80
2020/12/19 07:16:44;;;;;;;10.10;5.65;;;;;;;;;;4955934;29;20533;-80
2020/12/19 07:19:30;;;;;;;16.77;6.68;;;;;;;;;;4956342;28;20015;-80
2020/12/19 07:21:56;;;;;;;15.02;7.07;;;;;;;;;;4936407;29;20031;-79
2020/12/19 07:24:22;;;;;;;13.52;5.78;;;;;;;;;;4948788;28;20015;-80
2020/12/19 07:26:48;;;;;;;12.75;6.05;;;;;;;;;;4941813;29;20486;-81
2020/12/19 07:29:14;;;;;;;10.70;5.85;;;;;;;;;;4951215;29;20035;-81
2020/12/19 07:31:43;;;;;;;10.88;6.20;;;;;;;;;;4940350;28;20027;-81
2020/12/19 07:34:09;;;;;;;10.55;5.50;;;;;;;;;;4938082;29;20383;-81
2020/12/19 07:36:35;;;;;;;12.63;6.35;;;;;;;;;;4954131;29;20027;-80
2020/12/19 07:39:00;;;;;;;12.57;6.55;;;;;;;;;;4954720;28;20447;-80
2020/12/19 07:41:26;;;;;;;15.15;6.78;;;;;;;;;;4954593;29;20015;-81
2020/12/19 07:43:51;;;;;;;10.05;5.32;;;;;;;;;;4953286;29;20020;-81
2020/12/19 07:46:16;;;;;;;10.57;5.50;;;;;;;;;;4954098;29;20562;-81
2020/12/19 07:48:42;;;;;;;8.73;5.03;;;;;;;;;;4953679;29;20027;-81
2020/12/19 07:51:07;;;;;;;10.20;5.53;;;;;;;;;;4940794;29;20032;-81
2020/12/19 07:53:41;;;;;;;9.82;4.55;;;;;;;;;;4946995;29;20041;-81
2020/12/19 07:56:06;;;;;;;10.45;5.60;;;;;;;;;;4954544;28;20110;-81
2020/12/19 07:58:32;;;;;;;8.63;4.90;;;;;;;;;;4951730;29;20131;-81
2020/12/19 08:01:02;;;;;;;11.23;5.25;;;;;;;;;;4953404;28;20031;-81
2020/12/19 08:03:28;;;;;;;14.00;5.07;;;;;;;;;;4953666;28;20482;-81
2020/12/19 08:05:53;;;;;;;10.00;5.25;;;;;;;;;;4951573;29;20035;-81
2020/12/19 08:08:18;;;;;;;9.73;5.93;;;;;;;;;;4950881;28;20072;-82
2020/12/19 08:10:43;;;;;;;11.55;5.40;;;;;;;;;;4950179;28;20045;-82
2020/12/19 08:13:09;;;;;;;10.93;6.38;;;;;;;;;;4948402;28;20051;-82
2020/12/19 08:15:34;;;;;;;12.48;5.43;;;;;;;;;;4937109;29;20395;-82
2020/12/19 08:18:01;;;;;;;11.25;6.03;;;;;;;;;;4946919;29;21477;-83
2020/12/19 08:20:29;;;;;;;11.30;5.28;;;;;;;;;;4951445;29;20035;-83
2020/12/19 08:22:55;;;;;;;8.70;4.85;;;;;;;;;;4952996;29;20490;-83
2020/12/19 08:25:21;;;;;;;9.60;4.95;;;;;;;;;;4951680;29;20019;-83
2020/12/19 08:27:51;;;;;;;11.13;4.90;;;;;;;;;;4953939;29;20408;-83
2020/12/19 08:30:27;;;;;;;11.93;5.80;;;;;;;;;;4946157;29;20079;-83
2020/12/19 08:32:55;;;;;;;9.68;4.78;;;;;;;;;;4952937;28;20038;-83
2020/12/19 08:35:41;;;;;;;9.15;4.00;;;;;;;;;;4948416;28;20031;-82
2020/12/19 08:38:09;;;;;;;8.52;4.57;;;;;;;;;;4934465;29;20044;-83
2020/12/19 08:40:36;;;;;;;7.90;3.13;;;;;;;;;;4942600;28;20092;-82
2020/12/19 08:43:01;;;;;;;9.38;4.20;;;;;;;;;;4938342;28;20024;-82
2020/12/19 08:45:28;;;;;;;10.52;4.20;;;;;;;;;;4939890;28;20053;-81
2020/12/19 08:47:55;;;;;;;3.67;1.85;;;;;;;;;;4954707;28;20465;-82
2020/12/19 08:50:21;;;;;;;10.00;4.30;;;;;;;;;;4952703;29;20027;-82
2020/12/19 08:52:46;;;;;;;8.18;4.10;;;;;;;;;;4954321;28;20401;-82
2020/12/19 08:55:11;;;;;;;3.65;2.05;;;;;;;;;;4951620;29;20474;-80
2020/12/19 08:57:36;;;;;;;8.60;5.28;;;;;;;;;;4961558;28;20027;-82
2020/12/19 09:00:09;;;;;;;9.75;4.00;;;;;;;;;;4950533;28;20375;-81
2020/12/19 09:02:36;;;;;;;6.40;3.55;;;;;;;;;;4953213;28;20027;-82
2020/12/19 09:05:01;;;;;;;12.63;5.40;;;;;;;;;;4947666;28;20141;-82
2020/12/19 09:07:26;;;;;;;9.77;4.22;;;;;;;;;;4936983;29;20103;-82
2020/12/19 09:09:51;;;;;;;11.63;4.07;;;;;;;;;;4946637;28;20031;-82
2020/12/19 09:12:17;;;;;;;9.32;3.53;;;;;;;;;;4959919;28;20106;-82
2020/12/19 09:14:42;;;;;;;7.07;2.10;;;;;;;;;;4952709;28;20027;-82
2020/12/19 09:17:07;;;;;;;6.45;2.95;;;;;;;;;;4941017;28;20015;-81
2020/12/19 09:19:33;;;;;;;7.13;3.42;;;;;;;;;;4952778;29;20411;-81
2020/12/19 09:21:59;;;;;;;9.20;4.63;;;;;;;;;;4952058;28;20015;-82
2020/12/19 09:24:25;;;;;;;7.53;4.15;;;;;;;;;;4954165;28;20023;-82
2020/12/19 09:26:50;;;;;;;4.72;2.88;;;;;;;;;;4949238;29;20364;-82
2020/12/19 09:29:16;;;;;;;8.25;2.85;;;;;;;;;;4952243;29;20070;-82
2020/12/19 09:31:41;;;;;;;5.30;2.97;;;;;;;;;;4952162;29;20029;-82
2020/12/19 09:34:06;;;;;;;6.07;3.22;;;;;;;;;;4952183;28;20418;-82
2020/12/19 09:36:31;;;;;;;5.72;3.00;;;;;;;;;;4951863;29;20050;-80
2020/12/19 09:38:57;;;;;;;7.50;2.47;;;;;;;;;;4952098;29;20114;-82
2020/12/19 09:41:22;;;;;;;7.45;3.33;;;;;;;;;;4946713;29;20070;-81
2020/12/19 09:43:47;;;;;;;7.57;3.22;;;;;;;;;;4957169;28;20018;-81
2020/12/19 09:46:13;;;;;;;8.60;3.70;;;;;;;;;;4949262;29;20031;-82
2020/12/19 09:48:38;;;;;;;8.13;2.45;;;;;;;;;;4957588;28;20398;-82
2020/12/19 09:51:03;;;;;;;7.82;2.58;;;;;;;;;;4951829;28;20035;-82
2020/12/19 09:53:29;;;;;;;7.15;3.10;;;;;;;;;;4952567;28;20051;-82
2020/12/19 09:55:54;;;;;;;1.90;1.00;;;;;;;;;;4951763;28;20476;-81
2020/12/19 09:58:19;;;;;;;6.95;2.97;;;;;;;;;;4953447;28;20014;-81
2020/12/19 10:00:45;;;;;;;6.38;3.00;;;;;;;;;;4952940;28;20089;-82
2020/12/19 10:03:10;;;;;;;5.82;2.47;;;;;;;;;;4953019;28;20485;-81
2020/12/19 10:05:37;;;;;;;5.90;3.10;;;;;;;;;;4953101;29;20023;-81
2020/12/19 10:08:02;;;;;;;4.47;2.10;;;;;;;;;;4951538;29;20024;-82
2020/12/19 10:10:28;;;;;;;7.85;2.50;;;;;;;;;;4951209;29;20303;-82
2020/12/19 10:12:53;;;;;;;8.30;2.65;;;;;;;;;;4951662;28;20466;-82
2020/12/19 10:15:18;;;;;;;7.63;2.38;;;;;;;;;;4952761;28;20070;-81
2020/12/19 10:17:43;;;;;;;3.30;1.67;;;;;;;;;;4951953;28;20521;-81
2020/12/19 10:20:09;;;;;;;8.70;2.40;;;;;;;;;;4950088;29;20410;-82
2020/12/19 10:22:35;;;;;;;5.38;1.88;;;;;;;;;;4954182;28;20019;-83
2020/12/19 10:25:00;;;;;;;9.15;2.85;;;;;;;;;;4957710;29;20074;-82
2020/12/19 10:27:26;;;;;;;7.38;2.95;;;;;;;;;;4957420;28;20066;-83
2020/12/19 10:29:51;;;;;;;4.28;2.10;;;;;;;;;;4967809;28;20111;-81
2020/12/19 10:32:16;;;;;;;5.95;2.15;;;;;;;;;;4958100;29;20015;-83
2020/12/19 10:34:41;;;;;;;5.45;2.70;;;;;;;;;;4957977;28;20051;-83
2020/12/19 10:37:07;;;;;;;5.78;2.60;;;;;;;;;;4950399;28;20058;-81
2020/12/19 10:39:32;;;;;;;4.50;2.38;;;;;;;;;;4958150;28;20023;-82
2020/12/19 10:41:58;;;;;;;4.32;1.80;;;;;;;;;;4954666;28;20019;-82
2020/12/19 10:44:23;;;;;;;6.15;3.03;;;;;;;;;;4952840;29;20071;-81
2020/12/19 10:46:48;;;;;;;8.10;3.55;;;;;;;;;;4946947;29;20110;-82
2020/12/19 10:49:13;;;;;;;5.70;2.70;;;;;;;;;;4955224;28;20051;-84
2020/12/19 10:51:38;;;;;;;6.20;2.72;;;;;;;;;;4956867;28;20035;-84
2020/12/19 10:54:04;;;;;;;4.97;2.30;;;;;;;;;;4952415;28;20122;-83
2020/12/19 10:56:29;;;;;;;4.85;2.45;;;;;;;;;;4958414;28;20015;-83
2020/12/19 10:58:54;;;;;;;5.53;2.75;;;;;;;;;;4959308;28;20069;-83
2020/12/19 11:01:19;;;;;;;11.18;3.03;;;;;;;;;;4959296;28;20485;-84
2020/12/19 11:03:45;;;;;;;6.38;2.75;;;;;;;;;;4957686;29;20579;-84
2020/12/19 11:06:20;;;;;;;4.47;2.67;;;;;;;;;;4957316;29;20062;-84
2020/12/19 11:08:46;;;;;;;3.83;2.47;;;;;;;;;;4948323;29;20082;-84
2020/12/19 11:11:11;;;;;;;7.97;2.70;;;;;;;;;;4959174;28;20493;-83
2020/12/19 11:13:37;;;;;;;7.63;2.83;;;;;;;;;;4949459;29;20055;-84
2020/12/19 11:16:02;;;;;;;6.75;2.80;;;;;;;;;;4958384;28;20054;-83
2020/12/19 11:18:27;;;;;;;6.22;2.67;;;;;;;;;;4958582;29;20109;-83
2020/12/19 11:20:52;;;;;;;4.85;2.03;;;;;;;;;;4958404;28;20023;-84
2020/12/19 11:23:17;;;;;;;8.68;3.20;;;;;;;;;;4956846;29;20106;-83
2020/12/19 11:25:43;;;;;;;4.30;2.85;;;;;;;;;;4958532;29;20027;-84
2020/12/19 11:28:08;;;;;;;4.78;2.65;;;;;;;;;;4951211;29;20369;-84
2020/12/19 11:30:33;;;;;;;8.48;2.58;;;;;;;;;;4956141;28;20054;-83
2020/12/19 11:32:58;;;;;;;7.10;2.92;;;;;;;;;;4959959;29;20050;-83
2020/12/19 11:35:23;;;;;;;4.20;2.10;;;;;;;;;;4955364;28;20029;-83
2020/12/19 11:37:49;;;;;;;6.80;2.50;;;;;;;;;;4955232;29;20111;-84
2020/12/19 11:40:14;;;;;;;10.82;2.85;;;;;;;;;;4953612;29;20024;-81
2020/12/19 11:42:39;;;;;;;7.32;2.35;;;;;;;;;;4950802;28;20019;-83
2020/12/19 11:45:04;;;;;;;4.68;2.65;;;;;;;;;;4947974;28;20570;-84
2020/12/19 11:47:30;;;;;;;5.25;2.45;;;;;;;;;;4956405;28;20083;-82
2020/12/19 11:49:55;;;;;;;6.72;2.75;;;;;;;;;;4946526;28;20058;-80
2020/12/19 11:52:20;;;;;;;5.63;2.63;;;;;;;;;;4945741;28;20466;-81
2020/12/19 11:54:46;;;;;;;10.02;2.80;;;;;;;;;;4947988;28;20024;-82
2020/12/19 11:57:11;;;;;;;8.30;2.80;;;;;;;;;;4946359;28;20023;-82
2020/12/19 11:59:36;;;;;;;5.93;3.10;;;;;;;;;;4942921;28;20475;-81
2020/12/19 12:02:02;;;;;;;5.50;2.75;;;;;;;;;;4936786;29;20039;-83
2020/12/19 12:04:27;;;;;;;10.15;3.45;;;;;;;;;;4944710;28;20390;-80
2020/12/19 12:06:52;;;;;;;9.50;2.70;;;;;;;;;;4947867;28;20037;-82
2020/12/19 12:09:18;;;;;;;11.90;2.92;;;;;;;;;;4951672;28;20031;-84
2020/12/19 12:11:43;;;;;;;5.25;2.60;;;;;;;;;;4946841;28;20035;-83
2020/12/19 12:14:08;;;;;;;9.40;3.20;;;;;;;;;;4952871;28;20458;-81
2020/12/19 12:16:33;;;;;;;9.82;2.75;;;;;;;;;;4952512;28;20113;-82
2020/12/19 12:18:59;;;;;;;13.30;3.67;;;;;;;;;;4955328;28;20036;-83
2020/12/19 12:21:26;;;;;;;6.80;3.10;;;;;;;;;;4953612;28;20378;-84
2020/12/19 12:23:51;;;;;;;7.97;2.80;;;;;;;;;;4948812;28;20036;-84
2020/12/19 12:26:25;;;;;;;7.55;3.10;;;;;;;;;;4938266;29;20051;-84
2020/12/19 12:28:51;;;;;;;7.93;2.92;;;;;;;;;;4946682;29;20030;-84
2020/12/19 12:31:35;;;;;;;10.23;3.95;;;;;;;;;;4953816;29;20470;-83
2020/12/19 12:34:00;;;;;;;7.38;3.35;;;;;;;;;;4946440;28;20094;-83
2020/12/19 12:36:27;;;;;;;8.27;3.25;;;;;;;;;;4955208;29;20111;-84
2020/12/19 12:38:53;;;;;;;7.22;3.30;;;;;;;;;;4951096;28;20102;-85
2020/12/19 12:41:18;;;;;;;10.00;3.60;;;;;;;;;;4948193;29;20494;-85
2020/12/19 12:43:43;;;;;;;5.95;3.00;;;;;;;;;;4949828;29;20118;-84
2020/12/19 12:46:09;;;;;;;6.57;3.40;;;;;;;;;;4946228;28;20061;-84
2020/12/19 12:48:35;;;;;;;7.60;2.65;;;;;;;;;;4953098;28;20054;-84
2020/12/19 12:51:00;;;;;;;6.70;3.28;;;;;;;;;;4949372;28;20427;-85
2020/12/19 12:53:25;;;;;;;6.57;2.97;;;;;;;;;;4950616;28;20058;-84
2020/12/19 12:55:50;;;;;;;9.23;2.78;;;;;;;;;;4946987;28;20029;-85
2020/12/19 12:58:16;;;;;;;5.82;2.47;;;;;;;;;;4955661;28;20530;-85
2020/12/19 13:00:41;;;;;;;6.00;3.00;;;;;;;;;;4950570;28;20026;-85
2020/12/19 13:03:06;;;;;;;6.20;3.03;;;;;;;;;;4954542;28;20012;-85
2020/12/19 13:05:31;;;;;;;8.38;3.25;;;;;;;;;;4952609;29;20024;-85
2020/12/19 13:07:56;;;;;;;4.57;2.90;;;;;;;;;;4949735;29;20391;-85
2020/12/19 13:10:22;;;;;;;6.18;3.13;;;;;;;;;;4952396;29;20019;-85
2020/12/19 13:12:47;;;;;;;9.93;2.83;;;;;;;;;;4952455;29;20031;-86
2020/12/19 13:15:12;;;;;;;8.63;2.75;;;;;;;;;;4952348;29;20023;-85
2020/12/19 13:17:38;;;;;;;5.43;2.55;;;;;;;;;;4949689;28;20015;-85
2020/12/19 13:20:03;;;;;;;10.07;2.33;;;;;;;;;;4952344;28;20019;-85
2020/12/19 13:22:29;;;;;;;7.50;2.42;;;;;;;;;;4953018;29;20159;-83
2020/12/19 13:24:54;;;;;;;5.47;2.55;;;;;;;;;;4952234;29;20018;-84
2020/12/19 13:27:19;;;;;;;6.07;2.40;;;;;;;;;;4952116;29;20023;-83
2020/12/19 13:29:44;;;;;;;4.88;2.78;;;;;;;;;;4951988;29;20073;-83
2020/12/19 13:32:09;;;;;;;7.60;2.70;;;;;;;;;;4949050;29;20539;-84
2020/12/19 13:34:34;;;;;;;10.02;2.25;;;;;;;;;;4951266;28;20028;-83
2020/12/19 13:37:00;;;;;;;5.00;1.17;;;;;;;;;;4948671;28;20114;-83
2020/12/19 13:39:25;;;;;;;6.20;2.33;;;;;;;;;;4951480;29;20382;-84
2020/12/19 13:41:53;;;;;;;7.55;1.45;;;;;;;;;;4952222;28;20019;-84
2020/12/19 13:44:18;;;;;;;8.98;2.40;;;;;;;;;;4951379;28;20031;-84
2020/12/19 13:46:44;;;;;;;5.53;1.50;;;;;;;;;;4940503;29;20036;-85
2020/12/19 13:49:09;;;;;;;4.80;1.70;;;;;;;;;;4947631;29;20046;-85
2020/12/19 13:51:34;;;;;;;4.18;1.60;;;;;;;;;;4944492;29;20041;-84
2020/12/19 13:53:59;;;;;;;2.97;0.98;;;;;;;;;;4954057;29;20070;-83
2020/12/19 13:56:27;;;;;;;6.35;1.83;;;;;;;;;;4951355;28;20019;-84
2020/12/19 13:58:52;;;;;;;4.25;2.08;;;;;;;;;;4950081;28;20023;-83
2020/12/19 14:01:18;;;;;;;7.88;1.75;;;;;;;;;;4944747;29;20027;-83
2020/12/19 14:03:44;;;;;;;4.90;1.02;;;;;;;;;;4952749;29;20087;-84
2020/12/19 14:06:12;;;;;;;3.30;1.60;;;;;;;;;;4952403;29;20015;-83
2020/12/19 14:08:38;;;;;;;2.90;1.00;;;;;;;;;;4945823;29;20039;-83
2020/12/19 14:11:03;;;;;;;2.70;1.33;;;;;;;;;;4945964;28;20039;-83
2020/12/19 14:13:28;;;;;;;4.97;1.85;;;;;;;;;;4942051;29;20031;-83
2020/12/19 14:15:54;;;;;;;6.20;1.52;;;;;;;;;;4948346;28;20030;-83
2020/12/19 14:18:19;;;;;;;10.73;1.08;;;;;;;;;;4948459;28;20022;-84
2020/12/19 14:20:44;;;;;;;3.95;1.20;;;;;;;;;;4952436;28;20030;-83
2020/12/19 14:23:10;;;;;;;1.35;0.70;;;;;;;;;;4949905;29;20054;-84
2020/12/19 14:25:35;;;;;;;4.65;1.77;;;;;;;;;;4949828;28;20031;-84
2020/12/19 14:28:00;;;;;;;2.92;1.30;;;;;;;;;;4941434;28;20023;-82
2020/12/19 14:30:26;;;;;;;3.50;1.75;;;;;;;;;;4947332;28;20062;-83